Terminal Aerodrome Forecast
Issued by NWS

Home | Current Version | Previous Version | Text Only | Print | Product List | Glossary On
Versions: 1 2 3 4 5 6 7 8 9 10 11 12 13 14 15 16 17 18 19 20 21 22 23 24 25 26 27 28 29 30 31 32 33 34 35 36 37 38 39
000
FTUS45 KPSR 022320
TAFPHX
TAF
KPHX 022320Z 0300/0324 27014G22KT P6SM FEW120 SCT250
     FM030400 27006KT P6SM SCT250
     FM031100 10004KT P6SM FEW250
     FM031800 27009KT P6SM FEW120 SCT250=

USA.gov is the U.S. government's official web portal to all federal, state and local government web resources and services.